Time;durP1;ratioP1;P1;durP2;ratioP2;P2;SDS_P1;SDS_P2;PMS_P1;PMS_P2;Temp;Humidity;BMP_temperature;BMP_pressure;BME280_temperature;BME280_humidity;BME280_pressure;Samples;Min_cycle;Max_cycle;Signal;HPM_P1;HPM_P2
2023/07/18 00:00:51;;;;;;;1.15;1.05;;;;;;;;;;5050733;28;20232;-58
2023/07/18 00:03:19;;;;;;;1.02;1.00;;;;;;;;;;5057155;28;20200;-58
2023/07/18 00:05:46;;;;;;;2.65;1.30;;;;;;;;;;5066682;28;20312;-58
2023/07/18 00:08:14;;;;;;;1.27;1.17;;;;;;;;;;5066599;28;20210;-58
2023/07/18 00:10:41;;;;;;;1.27;1.27;;;;;;;;;;5062779;28;20571;-58
2023/07/18 00:13:08;;;;;;;1.40;1.30;;;;;;;;;;5066163;28;20669;-58
2023/07/18 00:15:36;;;;;;;1.30;1.20;;;;;;;;;;5054549;28;20246;-58
2023/07/18 00:18:04;;;;;;;4.10;0.95;;;;;;;;;;5047857;28;20215;-59
2023/07/18 00:20:31;;;;;;;1.02;1.02;;;;;;;;;;5050626;28;20664;-58
2023/07/18 00:22:59;;;;;;;3.33;1.15;;;;;;;;;;5048639;28;20652;-59
2023/07/18 00:25:26;;;;;;;1.13;1.13;;;;;;;;;;5055905;28;20665;-58
2023/07/18 00:27:53;;;;;;;2.28;1.15;;;;;;;;;;5058122;28;20215;-58
2023/07/18 00:30:21;;;;;;;2.50;1.20;;;;;;;;;;5048901;28;20235;-58
2023/07/18 00:32:49;;;;;;;1.20;1.20;;;;;;;;;;5057191;28;20231;-59
2023/07/18 00:35:17;;;;;;;1.40;1.30;;;;;;;;;;5062531;28;20207;-58
2023/07/18 00:37:44;;;;;;;4.05;1.40;;;;;;;;;;5067134;28;20207;-58
2023/07/18 00:40:12;;;;;;;1.48;1.38;;;;;;;;;;5064271;28;20203;-58
2023/07/18 00:42:39;;;;;;;1.20;1.20;;;;;;;;;;5067357;28;20218;-58
2023/07/18 00:45:07;;;;;;;1.63;1.52;;;;;;;;;;5061824;28;20199;-58
2023/07/18 00:47:40;;;;;;;1.60;1.40;;;;;;;;;;5049848;28;20219;-58
2023/07/18 00:50:09;;;;;;;1.10;1.10;;;;;;;;;;5046708;28;20208;-58
2023/07/18 00:52:38;;;;;;;1.38;1.08;;;;;;;;;;5049877;28;20219;-59
2023/07/18 00:55:05;;;;;;;1.98;1.73;;;;;;;;;;5054702;28;20199;-59
2023/07/18 00:57:35;;;;;;;2.75;1.17;;;;;;;;;;5065768;28;20224;-58
2023/07/18 01:00:04;;;;;;;1.50;1.00;;;;;;;;;;5052591;28;20207;-58
2023/07/18 01:02:32;;;;;;;1.20;1.20;;;;;;;;;;5050670;28;20204;-58
2023/07/18 01:04:59;;;;;;;1.10;1.10;;;;;;;;;;5050302;28;20218;-59
2023/07/18 01:07:27;;;;;;;1.33;1.20;;;;;;;;;;5046467;28;20669;-58
2023/07/18 01:10:02;;;;;;;3.00;1.48;;;;;;;;;;5061059;28;20585;-58
2023/07/18 01:12:29;;;;;;;1.40;1.30;;;;;;;;;;5068709;28;20234;-58
2023/07/18 01:14:57;;;;;;;1.05;1.05;;;;;;;;;;5058051;28;20203;-58
2023/07/18 01:17:24;;;;;;;2.42;1.48;;;;;;;;;;5056554;28;20235;-58
2023/07/18 01:19:51;;;;;;;1.20;1.20;;;;;;;;;;5049997;28;20207;-59
2023/07/18 01:22:19;;;;;;;2.78;1.40;;;;;;;;;;5049828;28;20697;-58
2023/07/18 01:24:46;;;;;;;1.55;1.40;;;;;;;;;;5053790;28;20233;-58
2023/07/18 01:27:13;;;;;;;1.08;1.00;;;;;;;;;;5059850;28;20205;-58
2023/07/18 01:29:40;;;;;;;2.67;1.20;;;;;;;;;;5049515;28;20203;-58
2023/07/18 01:32:08;;;;;;;1.38;1.27;;;;;;;;;;5048983;28;20665;-58
2023/07/18 01:34:35;;;;;;;1.55;0.98;;;;;;;;;;5045458;28;20216;-58
2023/07/18 01:37:02;;;;;;;1.27;1.17;;;;;;;;;;5049533;28;20250;-58
2023/07/18 01:39:30;;;;;;;1.30;1.20;;;;;;;;;;5051392;28;20204;-58
2023/07/18 01:41:57;;;;;;;1.38;1.10;;;;;;;;;;5049448;28;20204;-58
2023/07/18 01:44:24;;;;;;;1.27;1.10;;;;;;;;;;5053446;28;20704;-58
2023/07/18 01:46:51;;;;;;;1.90;1.20;;;;;;;;;;5053355;28;20291;-58
2023/07/18 01:49:18;;;;;;;0.85;0.85;;;;;;;;;;5051549;28;20246;-58
2023/07/18 01:51:45;;;;;;;1.25;1.15;;;;;;;;;;5049463;28;20254;-58
2023/07/18 01:54:12;;;;;;;1.63;1.40;;;;;;;;;;5056740;28;20210;-59
2023/07/18 01:56:41;;;;;;;3.03;1.30;;;;;;;;;;5048991;28;20215;-58
2023/07/18 01:59:08;;;;;;;1.27;1.15;;;;;;;;;;5054647;28;20211;-58
2023/07/18 02:01:35;;;;;;;1.27;1.17;;;;;;;;;;5068354;28;20713;-58
2023/07/18 02:06:55;;;;;;;1.70;1.20;;;;;;;;;;5038153;28;20567;-58
2023/07/18 02:09:23;;;;;;;1.40;1.30;;;;;;;;;;5051338;28;20214;-58
2023/07/18 02:11:51;;;;;;;1.30;1.30;;;;;;;;;;5066833;28;20230;-58
2023/07/18 02:14:20;;;;;;;1.33;1.23;;;;;;;;;;5050784;28;20206;-58
2023/07/18 02:16:47;;;;;;;1.65;1.40;;;;;;;;;;5067004;28;20231;-58
2023/07/18 02:19:14;;;;;;;2.33;1.30;;;;;;;;;;5063188;28;20227;-59
2023/07/18 02:21:41;;;;;;;1.75;1.50;;;;;;;;;;5060231;28;20203;-58
2023/07/18 02:24:08;;;;;;;1.60;1.50;;;;;;;;;;5064796;28;20211;-58
2023/07/18 02:26:35;;;;;;;1.63;1.52;;;;;;;;;;5049290;28;20207;-58
2023/07/18 02:29:03;;;;;;;4.05;1.35;;;;;;;;;;5048918;28;20204;-58
2023/07/18 02:31:31;;;;;;;1.25;1.20;;;;;;;;;;5059449;28;20721;-59
2023/07/18 02:33:58;;;;;;;1.40;1.38;;;;;;;;;;5049551;28;20204;-59
2023/07/18 02:36:26;;;;;;;4.18;1.00;;;;;;;;;;5056722;28;20664;-59
2023/07/18 02:38:53;;;;;;;1.50;1.40;;;;;;;;;;5063678;28;20673;-59
2023/07/18 02:41:20;;;;;;;0.95;0.95;;;;;;;;;;5066868;28;20256;-59
2023/07/18 02:43:47;;;;;;;2.20;1.58;;;;;;;;;;5066828;28;20222;-59
2023/07/18 02:46:16;;;;;;;1.42;1.20;;;;;;;;;;5048073;28;20227;-59
2023/07/18 02:48:43;;;;;;;1.30;1.20;;;;;;;;;;5050177;28;20207;-59
2023/07/18 02:51:10;;;;;;;1.55;1.45;;;;;;;;;;5057813;28;20231;-59
2023/07/18 02:53:39;;;;;;;1.20;1.20;;;;;;;;;;5066119;28;20243;-59
2023/07/18 02:56:06;;;;;;;1.05;1.05;;;;;;;;;;5054349;28;20231;-59
2023/07/18 02:58:33;;;;;;;1.60;1.50;;;;;;;;;;5048250;28;20229;-59
2023/07/18 03:01:00;;;;;;;1.40;1.38;;;;;;;;;;5048022;28;20200;-59
2023/07/18 03:03:29;;;;;;;2.38;1.00;;;;;;;;;;5057549;28;20207;-59
2023/07/18 03:05:56;;;;;;;1.20;1.20;;;;;;;;;;5055301;28;20229;-60
2023/07/18 03:08:23;;;;;;;1.25;1.15;;;;;;;;;;5048502;28;20212;-59
2023/07/18 03:10:50;;;;;;;1.50;1.40;;;;;;;;;;5047540;28;20208;-59
2023/07/18 03:13:17;;;;;;;1.23;1.20;;;;;;;;;;5059997;28;20214;-59
2023/07/18 03:15:45;;;;;;;1.33;1.23;;;;;;;;;;5063569;28;20207;-59
2023/07/18 03:18:12;;;;;;;2.05;1.30;;;;;;;;;;5050091;28;20208;-60
2023/07/18 03:20:41;;;;;;;3.80;1.45;;;;;;;;;;5047758;28;20241;-60
2023/07/18 03:23:08;;;;;;;2.10;1.20;;;;;;;;;;5056885;28;20207;-59
2023/07/18 03:25:35;;;;;;;4.30;1.58;;;;;;;;;;5056997;28;20218;-60
2023/07/18 03:28:02;;;;;;;1.48;1.38;;;;;;;;;;5047777;28;20317;-59
2023/07/18 03:30:30;;;;;;;1.23;1.13;;;;;;;;;;5048673;28;20235;-59
2023/07/18 03:32:57;;;;;;;4.18;1.52;;;;;;;;;;5050115;28;20216;-59
2023/07/18 03:35:24;;;;;;;1.63;1.52;;;;;;;;;;5061093;28;20620;-60
2023/07/18 03:37:52;;;;;;;1.58;1.35;;;;;;;;;;5050274;28;20219;-60
2023/07/18 03:40:19;;;;;;;1.20;1.20;;;;;;;;;;5047628;28;20206;-59
2023/07/18 03:42:47;;;;;;;3.80;1.58;;;;;;;;;;5046991;28;20224;-60
2023/07/18 03:45:15;;;;;;;1.38;1.38;;;;;;;;;;5048458;28;20210;-60
2023/07/18 03:47:42;;;;;;;1.92;1.60;;;;;;;;;;5055746;28;20239;-59
2023/07/18 03:50:11;;;;;;;1.08;1.08;;;;;;;;;;5047697;28;20218;-60
2023/07/18 03:52:38;;;;;;;1.65;1.48;;;;;;;;;;5051557;28;20995;-60
2023/07/18 03:55:07;;;;;;;2.05;1.60;;;;;;;;;;5048490;28;20203;-60
2023/07/18 03:57:34;;;;;;;2.55;1.73;;;;;;;;;;5051957;28;20741;-60
2023/07/18 04:00:13;;;;;;;1.60;1.50;;;;;;;;;;5066441;28;20217;-60
2023/07/18 04:02:40;;;;;;;1.40;1.30;;;;;;;;;;5055307;28;20200;-60
2023/07/18 04:05:08;;;;;;;1.55;1.40;;;;;;;;;;5048017;28;20231;-59
2023/07/18 04:07:35;;;;;;;1.52;1.50;;;;;;;;;;5064282;28;20209;-60
2023/07/18 04:10:02;;;;;;;1.60;1.45;;;;;;;;;;5058475;28;20796;-60
2023/07/18 04:12:30;;;;;;;1.40;1.40;;;;;;;;;;5062910;28;20222;-60
2023/07/18 04:14:57;;;;;;;1.45;1.30;;;;;;;;;;5047746;28;20211;-60
2023/07/18 04:17:25;;;;;;;1.52;1.33;;;;;;;;;;5065075;28;20227;-60
2023/07/18 04:19:53;;;;;;;2.92;1.65;;;;;;;;;;5054985;28;20628;-60
2023/07/18 04:22:20;;;;;;;1.27;1.27;;;;;;;;;;5067778;28;20202;-60
2023/07/18 04:24:48;;;;;;;1.33;1.23;;;;;;;;;;5067628;28;20250;-60
2023/07/18 04:27:15;;;;;;;1.70;1.60;;;;;;;;;;5060860;28;20253;-59
2023/07/18 04:29:43;;;;;;;1.30;1.30;;;;;;;;;;5065958;28;20203;-60
2023/07/18 04:32:12;;;;;;;1.75;1.65;;;;;;;;;;5062649;28;20315;-60
2023/07/18 04:34:39;;;;;;;1.40;1.30;;;;;;;;;;5066552;28;20207;-60
2023/07/18 04:37:06;;;;;;;3.55;1.58;;;;;;;;;;5067036;28;20214;-60
2023/07/18 04:39:33;;;;;;;7.68;1.48;;;;;;;;;;5065903;28;20200;-60
2023/07/18 04:42:01;;;;;;;3.45;1.83;;;;;;;;;;5053812;28;20195;-60
2023/07/18 04:44:28;;;;;;;1.63;1.60;;;;;;;;;;5053740;28;20393;-59
2023/07/18 04:46:57;;;;;;;2.05;1.73;;;;;;;;;;5070579;28;20297;-60
2023/07/18 04:49:24;;;;;;;1.70;1.60;;;;;;;;;;5051524;28;20219;-60
2023/07/18 04:51:52;;;;;;;1.20;1.20;;;;;;;;;;5051231;28;20315;-59
2023/07/18 04:54:19;;;;;;;2.95;1.83;;;;;;;;;;5051354;28;20204;-60
2023/07/18 04:56:46;;;;;;;2.08;1.10;;;;;;;;;;5065152;28;20558;-59
2023/07/18 04:59:13;;;;;;;2.67;1.65;;;;;;;;;;5055402;28;20215;-59
2023/07/18 05:01:41;;;;;;;1.75;1.65;;;;;;;;;;5063611;28;20203;-60
2023/07/18 05:04:09;;;;;;;2.38;1.73;;;;;;;;;;5059207;28;20215;-59
2023/07/18 05:06:36;;;;;;;1.60;1.50;;;;;;;;;;5050873;28;20207;-59
2023/07/18 05:09:04;;;;;;;2.20;1.67;;;;;;;;;;5064716;28;20234;-60
2023/07/18 05:11:31;;;;;;;1.48;1.38;;;;;;;;;;5059256;28;20208;-60
2023/07/18 05:13:58;;;;;;;4.18;1.60;;;;;;;;;;5047431;28;20208;-59
2023/07/18 05:16:25;;;;;;;2.95;1.95;;;;;;;;;;5047599;28;20231;-59
2023/07/18 05:18:52;;;;;;;2.08;1.83;;;;;;;;;;5059952;28;20237;-60
2023/07/18 05:21:21;;;;;;;1.27;1.27;;;;;;;;;;5067410;28;20284;-61
2023/07/18 05:23:48;;;;;;;3.92;1.65;;;;;;;;;;5061227;28;20673;-60
2023/07/18 05:26:15;;;;;;;1.60;1.50;;;;;;;;;;5059998;28;20200;-60
2023/07/18 05:28:42;;;;;;;1.98;1.77;;;;;;;;;;5061397;28;20207;-60
2023/07/18 05:31:10;;;;;;;2.03;1.42;;;;;;;;;;5058761;28;20214;-61
2023/07/18 05:33:37;;;;;;;2.75;1.60;;;;;;;;;;5058622;28;20319;-61
2023/07/18 05:36:04;;;;;;;2.67;1.40;;;;;;;;;;5069881;28;20576;-61
2023/07/18 05:38:33;;;;;;;1.27;1.27;;;;;;;;;;5069913;28;20207;-61
2023/07/18 05:41:00;;;;;;;1.33;1.33;;;;;;;;;;5067206;28;20219;-60
2023/07/18 05:43:27;;;;;;;2.35;1.73;;;;;;;;;;5051366;28;20239;-61
2023/07/18 05:45:54;;;;;;;3.40;1.70;;;;;;;;;;5067106;28;20207;-61
2023/07/18 05:48:21;;;;;;;1.60;1.50;;;;;;;;;;5067542;28;20278;-61
2023/07/18 05:50:48;;;;;;;1.95;1.58;;;;;;;;;;5069429;28;20306;-60
2023/07/18 05:53:15;;;;;;;2.53;1.88;;;;;;;;;;5068170;28;20254;-61
2023/07/18 05:55:44;;;;;;;1.77;1.70;;;;;;;;;;5070130;28;20303;-60
2023/07/18 05:58:11;;;;;;;1.85;1.30;;;;;;;;;;5068145;28;20352;-61
2023/07/18 06:00:38;;;;;;;1.65;1.55;;;;;;;;;;5069759;28;20211;-61
2023/07/18 06:03:05;;;;;;;1.55;1.45;;;;;;;;;;5069378;28;20575;-60
2023/07/18 06:05:32;;;;;;;1.15;1.15;;;;;;;;;;5049661;28;20212;-60
2023/07/18 06:07:59;;;;;;;1.67;1.58;;;;;;;;;;5049446;28;20210;-60
2023/07/18 06:10:26;;;;;;;1.30;1.20;;;;;;;;;;5049767;28;20211;-60
2023/07/18 06:12:55;;;;;;;1.13;1.10;;;;;;;;;;5049155;28;20643;-61
2023/07/18 06:15:22;;;;;;;1.15;1.15;;;;;;;;;;5065307;28;20195;-61
2023/07/18 06:17:49;;;;;;;1.90;1.40;;;;;;;;;;5057210;28;20238;-60
2023/07/18 06:20:16;;;;;;;2.13;1.38;;;;;;;;;;5062697;28;20203;-60
2023/07/18 06:22:44;;;;;;;1.30;1.20;;;;;;;;;;5053054;28;20208;-60
2023/07/18 06:25:11;;;;;;;1.15;1.15;;;;;;;;;;5044546;28;20210;-60
2023/07/18 06:27:38;;;;;;;1.30;1.30;;;;;;;;;;5051245;28;20212;-60
2023/07/18 06:30:08;;;;;;;1.20;1.10;;;;;;;;;;5058825;28;20204;-60
2023/07/18 06:32:35;;;;;;;2.00;1.08;;;;;;;;;;5047474;28;20765;-60
2023/07/18 06:35:04;;;;;;;1.42;1.30;;;;;;;;;;5049505;28;20227;-61
2023/07/18 06:37:31;;;;;;;1.00;1.00;;;;;;;;;;5065432;28;20580;-60
2023/07/18 06:39:58;;;;;;;1.55;0.95;;;;;;;;;;5065175;28;20226;-61
2023/07/18 06:42:25;;;;;;;1.00;1.00;;;;;;;;;;5067808;28;20226;-60
2023/07/18 06:44:52;;;;;;;1.38;1.27;;;;;;;;;;5067460;28;20234;-60
2023/07/18 06:47:20;;;;;;;2.70;1.42;;;;;;;;;;5065532;28;20207;-60
2023/07/18 06:49:47;;;;;;;1.15;1.15;;;;;;;;;;5067577;28;20269;-60
2023/07/18 06:52:14;;;;;;;1.55;1.00;;;;;;;;;;5068438;28;20248;-64
2023/07/18 06:54:41;;;;;;;1.30;0.98;;;;;;;;;;5068074;28;20210;-61
2023/07/18 06:57:09;;;;;;;1.48;1.33;;;;;;;;;;5066930;28;20218;-60
2023/07/18 06:59:36;;;;;;;1.95;1.23;;;;;;;;;;5067229;28;20913;-60
2023/07/18 07:02:03;;;;;;;0.90;0.90;;;;;;;;;;5067982;28;20222;-60
2023/07/18 07:04:31;;;;;;;1.33;1.33;;;;;;;;;;5067766;28;20810;-60
2023/07/18 07:06:59;;;;;;;1.10;1.00;;;;;;;;;;5067182;28;20221;-61
2023/07/18 07:09:26;;;;;;;1.00;1.00;;;;;;;;;;5066198;28;20203;-64
2023/07/18 07:11:53;;;;;;;2.42;1.08;;;;;;;;;;5066682;28;20207;-61
2023/07/18 07:14:20;;;;;;;1.10;1.00;;;;;;;;;;5067495;28;20254;-59
2023/07/18 07:16:51;;;;;;;1.17;1.05;;;;;;;;;;5053721;28;20262;-60
2023/07/18 07:19:18;;;;;;;0.98;0.98;;;;;;;;;;5067546;28;20669;-60
2023/07/18 07:21:46;;;;;;;1.13;1.10;;;;;;;;;;5067548;28;20305;-60
2023/07/18 07:24:13;;;;;;;0.88;0.70;;;;;;;;;;5067437;28;20207;-60
2023/07/18 07:26:40;;;;;;;0.75;0.75;;;;;;;;;;5067342;28;20210;-61
2023/07/18 07:29:09;;;;;;;1.50;0.90;;;;;;;;;;5067440;28;20593;-60
2023/07/18 07:31:37;;;;;;;0.88;0.88;;;;;;;;;;5065358;28;20211;-60
2023/07/18 07:34:04;;;;;;;1.85;1.00;;;;;;;;;;5067281;28;20704;-60
2023/07/18 07:36:32;;;;;;;0.98;0.77;;;;;;;;;;5064825;28;20211;-60
2023/07/18 07:39:01;;;;;;;1.30;0.90;;;;;;;;;;5047146;28;20261;-59
2023/07/18 07:41:28;;;;;;;0.70;0.70;;;;;;;;;;5060770;28;20340;-60
2023/07/18 07:43:55;;;;;;;0.60;0.60;;;;;;;;;;5066420;28;20222;-59
2023/07/18 07:46:22;;;;;;;0.82;0.82;;;;;;;;;;5067418;28;20207;-60
2023/07/18 07:48:49;;;;;;;5.18;0.70;;;;;;;;;;5066723;28;20663;-60
2023/07/18 07:51:16;;;;;;;0.88;0.88;;;;;;;;;;5065398;28;20210;-59
2023/07/18 07:53:44;;;;;;;2.50;0.90;;;;;;;;;;5066986;28;20238;-59
2023/07/18 07:56:12;;;;;;;5.75;1.10;;;;;;;;;;5066640;28;20294;-60
2023/07/18 07:58:39;;;;;;;0.90;0.90;;;;;;;;;;5067081;28;20207;-60
2023/07/18 08:01:06;;;;;;;0.63;0.63;;;;;;;;;;5066962;28;20215;-60
2023/07/18 08:03:33;;;;;;;0.52;0.52;;;;;;;;;;5067014;28;20294;-59
2023/07/18 08:06:00;;;;;;;0.80;0.80;;;;;;;;;;5065393;28;20640;-60
2023/07/18 08:08:27;;;;;;;2.10;0.70;;;;;;;;;;5066917;28;20219;-60
2023/07/18 08:10:54;;;;;;;1.23;1.13;;;;;;;;;;5066330;28;20218;-60
2023/07/18 08:13:23;;;;;;;0.70;0.70;;;;;;;;;;5058984;28;20223;-60
2023/07/18 08:15:50;;;;;;;1.17;0.90;;;;;;;;;;5050687;28;20266;-60
2023/07/18 08:18:17;;;;;;;1.38;0.70;;;;;;;;;;5049520;28;20238;-60
2023/07/18 08:20:44;;;;;;;0.75;0.75;;;;;;;;;;5060172;28;20210;-60
2023/07/18 08:23:13;;;;;;;1.00;1.00;;;;;;;;;;5070938;28;20628;-59
2023/07/18 08:25:40;;;;;;;0.90;0.90;;;;;;;;;;5058313;28;20290;-59
2023/07/18 08:28:07;;;;;;;1.55;1.00;;;;;;;;;;5050826;28;20250;-60
2023/07/18 08:30:35;;;;;;;0.70;0.70;;;;;;;;;;5059447;28;20585;-61
2023/07/18 08:33:02;;;;;;;1.17;0.82;;;;;;;;;;5070868;28;20230;-59
2023/07/18 08:35:29;;;;;;;0.75;0.75;;;;;;;;;;5069181;28;20199;-59
2023/07/18 08:37:56;;;;;;;3.25;0.75;;;;;;;;;;5070691;28;20214;-60
2023/07/18 08:40:24;;;;;;;1.50;1.15;;;;;;;;;;5059239;28;20214;-60
2023/07/18 08:42:52;;;;;;;0.73;0.73;;;;;;;;;;5050913;28;20344;-60
2023/07/18 08:45:20;;;;;;;3.13;1.10;;;;;;;;;;5050791;28;20240;-59
2023/07/18 08:47:51;;;;;;;3.10;0.80;;;;;;;;;;5061347;28;20206;-60
2023/07/18 08:50:18;;;;;;;1.05;0.70;;;;;;;;;;5068871;28;20211;-60
2023/07/18 08:52:45;;;;;;;1.10;0.85;;;;;;;;;;5070536;28;20207;-60
2023/07/18 08:55:12;;;;;;;0.80;0.80;;;;;;;;;;5070280;28;20674;-60
2023/07/18 08:57:41;;;;;;;0.70;0.70;;;;;;;;;;5069716;28;20635;-61
2023/07/18 09:00:11;;;;;;;0.77;0.77;;;;;;;;;;5066823;28;20207;-62
2023/07/18 09:02:38;;;;;;;0.73;0.73;;;;;;;;;;5067632;28;20338;-60
2023/07/18 09:05:07;;;;;;;1.05;0.77;;;;;;;;;;5068896;28;20220;-59
2023/07/18 09:07:36;;;;;;;0.65;0.65;;;;;;;;;;5067517;28;20676;-59
2023/07/18 09:10:04;;;;;;;0.70;0.60;;;;;;;;;;5069743;28;20214;-60
2023/07/18 09:12:31;;;;;;;0.70;0.70;;;;;;;;;;5069380;28;20217;-60
2023/07/18 09:14:58;;;;;;;0.80;0.80;;;;;;;;;;5067786;28;20258;-60
2023/07/18 09:17:25;;;;;;;0.98;0.90;;;;;;;;;;5069492;28;20731;-61
2023/07/18 09:19:52;;;;;;;0.80;0.80;;;;;;;;;;5069712;28;20211;-61
2023/07/18 09:22:21;;;;;;;0.60;0.60;;;;;;;;;;5055731;28;20204;-61
2023/07/18 09:24:48;;;;;;;0.68;0.68;;;;;;;;;;5049700;28;20211;-61
2023/07/18 09:27:16;;;;;;;0.75;0.75;;;;;;;;;;5049171;28;20208;-61
2023/07/18 09:29:44;;;;;;;0.70;0.60;;;;;;;;;;5049737;28;20250;-60
2023/07/18 09:32:16;;;;;;;0.63;0.63;;;;;;;;;;5049597;28;20299;-61
2023/07/18 09:34:52;;;;;;;0.50;0.50;;;;;;;;;;5050134;28;20255;-60
2023/07/18 09:37:20;;;;;;;1.35;0.70;;;;;;;;;;5049384;28;20235;-60
2023/07/18 09:39:48;;;;;;;0.65;0.65;;;;;;;;;;5051256;28;20212;-59
2023/07/18 09:42:17;;;;;;;1.10;1.00;;;;;;;;;;5062560;28;20238;-60
2023/07/18 09:44:44;;;;;;;2.22;0.82;;;;;;;;;;5068116;28;20223;-60
2023/07/18 09:47:12;;;;;;;1.75;0.73;;;;;;;;;;5068737;28;20222;-60
2023/07/18 09:49:39;;;;;;;1.08;0.77;;;;;;;;;;5066562;28;20219;-59
2023/07/18 09:52:07;;;;;;;1.42;1.20;;;;;;;;;;5068806;28;20210;-59
2023/07/18 09:54:36;;;;;;;0.70;0.70;;;;;;;;;;5069109;28;20238;-60
2023/07/18 09:57:05;;;;;;;0.85;0.85;;;;;;;;;;5069336;28;20211;-60
2023/07/18 09:59:32;;;;;;;0.70;0.70;;;;;;;;;;5068957;28;20290;-60
2023/07/18 10:02:06;;;;;;;3.75;0.80;;;;;;;;;;5068811;28;20269;-61
2023/07/18 10:04:33;;;;;;;3.53;1.00;;;;;;;;;;5067041;28;20218;-61
2023/07/18 10:07:02;;;;;;;0.70;0.70;;;;;;;;;;5061548;28;20641;-61
2023/07/18 10:09:29;;;;;;;0.95;0.82;;;;;;;;;;5056256;28;20207;-60
2023/07/18 10:12:12;;;;;;;2.03;0.93;;;;;;;;;;5062908;28;20210;-60
2023/07/18 10:14:52;;;;;;;0.75;0.75;;;;;;;;;;5048550;28;20231;-61
2023/07/18 10:17:26;;;;;;;1.70;0.88;;;;;;;;;;5054430;28;20237;-60
2023/07/18 10:19:53;;;;;;;0.90;0.77;;;;;;;;;;5048480;28;20259;-61
2023/07/18 10:22:25;;;;;;;0.73;0.73;;;;;;;;;;5048504;28;20208;-60
2023/07/18 10:24:53;;;;;;;1.60;0.98;;;;;;;;;;5054187;28;20273;-60
2023/07/18 10:27:24;;;;;;;1.00;1.00;;;;;;;;;;5057417;28;20702;-60
2023/07/18 10:30:04;;;;;;;1.02;0.90;;;;;;;;;;5068190;28;20238;-63
2023/07/18 10:32:32;;;;;;;0.60;0.60;;;;;;;;;;5048667;28;21043;-61
2023/07/18 10:34:59;;;;;;;0.90;0.90;;;;;;;;;;5049235;28;20293;-61
2023/07/18 10:37:27;;;;;;;0.90;0.90;;;;;;;;;;5049540;28;20204;-61
2023/07/18 10:39:54;;;;;;;0.70;0.70;;;;;;;;;;5058691;28;20643;-61
2023/07/18 10:42:26;;;;;;;0.85;0.85;;;;;;;;;;5048443;28;20594;-60
2023/07/18 10:44:57;;;;;;;1.90;1.60;;;;;;;;;;5065005;28;20797;-59
2023/07/18 10:47:24;;;;;;;2.88;2.63;;;;;;;;;;5067919;28;20211;-60
2023/07/18 10:49:52;;;;;;;1.10;1.10;;;;;;;;;;5067808;28;20211;-60
2023/07/18 10:52:20;;;;;;;0.95;0.95;;;;;;;;;;5065436;28;20217;-60
2023/07/18 10:54:47;;;;;;;1.70;1.60;;;;;;;;;;5066113;28;20227;-59
2023/07/18 10:57:16;;;;;;;1.00;1.00;;;;;;;;;;5065314;28;20195;-59
2023/07/18 10:59:45;;;;;;;4.25;1.30;;;;;;;;;;5049680;28;20207;-61
2023/07/18 11:02:12;;;;;;;3.05;1.85;;;;;;;;;;5057282;28;20739;-60
2023/07/18 11:04:40;;;;;;;1.48;1.38;;;;;;;;;;5056303;28;20217;-59
2023/07/18 11:07:10;;;;;;;2.92;0.80;;;;;;;;;;5047440;28;20700;-59
2023/07/18 11:09:37;;;;;;;0.60;0.60;;;;;;;;;;5059177;28;20293;-59
2023/07/18 11:12:05;;;;;;;0.63;0.63;;;;;;;;;;5048612;28;20207;-59
2023/07/18 11:14:38;;;;;;;0.63;0.60;;;;;;;;;;5058264;28;20353;-60
2023/07/18 11:17:12;;;;;;;0.73;0.60;;;;;;;;;;5057748;28;20695;-59
2023/07/18 11:19:39;;;;;;;1.73;0.80;;;;;;;;;;5051640;28;20732;-59
2023/07/18 11:22:08;;;;;;;2.53;0.90;;;;;;;;;;5058967;28;20211;-60
2023/07/18 11:24:35;;;;;;;1.80;0.73;;;;;;;;;;5056773;28;20829;-59
2023/07/18 11:27:12;;;;;;;0.90;0.60;;;;;;;;;;5046480;28;20239;-59
2023/07/18 11:29:39;;;;;;;1.55;0.77;;;;;;;;;;5065643;28;20268;-59
2023/07/18 11:32:07;;;;;;;0.77;0.77;;;;;;;;;;5054198;28;20195;-59
2023/07/18 11:34:35;;;;;;;0.60;0.60;;;;;;;;;;5061430;28;20223;-60
2023/07/18 11:37:02;;;;;;;0.80;0.80;;;;;;;;;;5059410;28;20306;-59
2023/07/18 11:39:32;;;;;;;1.27;0.63;;;;;;;;;;5062383;28;20217;-59
2023/07/18 11:42:11;;;;;;;2.17;0.70;;;;;;;;;;5049682;28;20219;-58
2023/07/18 11:44:43;;;;;;;0.70;0.70;;;;;;;;;;5048168;28;20199;-59
2023/07/18 11:47:12;;;;;;;1.80;0.60;;;;;;;;;;5045913;28;20249;-59
2023/07/18 11:49:40;;;;;;;0.80;0.70;;;;;;;;;;5048818;28;20677;-58
2023/07/18 11:52:09;;;;;;;0.80;0.80;;;;;;;;;;5062543;28;20688;-58
2023/07/18 11:54:37;;;;;;;0.63;0.63;;;;;;;;;;5064379;28;20214;-59
2023/07/18 11:57:04;;;;;;;0.50;0.50;;;;;;;;;;5065468;28;20199;-59
2023/07/18 11:59:31;;;;;;;4.63;0.90;;;;;;;;;;5065925;28;20265;-58
2023/07/18 12:01:58;;;;;;;0.55;0.55;;;;;;;;;;5066846;28;20207;-59
2023/07/18 12:04:25;;;;;;;0.80;0.77;;;;;;;;;;5065273;28;20261;-58
2023/07/18 12:06:54;;;;;;;0.88;0.68;;;;;;;;;;5049142;28;20236;-58
2023/07/18 12:09:21;;;;;;;0.98;0.98;;;;;;;;;;5046889;28;20222;-59
2023/07/18 12:11:48;;;;;;;1.10;1.00;;;;;;;;;;5059576;28;20669;-59
2023/07/18 12:14:15;;;;;;;0.88;0.88;;;;;;;;;;5066256;28;20234;-59
2023/07/18 12:16:42;;;;;;;0.70;0.70;;;;;;;;;;5053587;28;20242;-59
2023/07/18 12:19:09;;;;;;;2.60;0.85;;;;;;;;;;5046431;28;20215;-59
2023/07/18 12:21:37;;;;;;;2.63;0.90;;;;;;;;;;5046245;28;20242;-59
2023/07/18 12:24:05;;;;;;;0.63;0.63;;;;;;;;;;5044924;28;20530;-59
2023/07/18 12:26:32;;;;;;;0.80;0.80;;;;;;;;;;5053191;28;20206;-59
2023/07/18 12:29:00;;;;;;;0.50;0.50;;;;;;;;;;5065643;28;20207;-59
2023/07/18 12:31:27;;;;;;;0.90;0.90;;;;;;;;;;5047120;28;20299;-60
2023/07/18 12:33:54;;;;;;;0.77;0.70;;;;;;;;;;5045874;28;20649;-59
2023/07/18 12:36:21;;;;;;;0.77;0.77;;;;;;;;;;5046883;28;20200;-59
2023/07/18 12:38:48;;;;;;;1.85;1.10;;;;;;;;;;5049096;28;20214;-59
2023/07/18 12:41:16;;;;;;;4.75;0.95;;;;;;;;;;5063524;28;20719;-59
2023/07/18 12:43:43;;;;;;;0.95;0.88;;;;;;;;;;5055393;28;20246;-60
2023/07/18 12:46:10;;;;;;;1.15;0.70;;;;;;;;;;5046205;28;20212;-59
2023/07/18 12:48:37;;;;;;;0.98;0.77;;;;;;;;;;5046293;28;20215;-60
2023/07/18 12:51:04;;;;;;;0.98;0.88;;;;;;;;;;5062276;28;20211;-59
2023/07/18 12:53:32;;;;;;;1.10;0.70;;;;;;;;;;5065919;28;20673;-59
2023/07/18 12:55:59;;;;;;;0.63;0.63;;;;;;;;;;5063297;28;20333;-59
2023/07/18 12:58:27;;;;;;;0.85;0.85;;;;;;;;;;5067846;28;20681;-59
2023/07/18 13:00:54;;;;;;;1.63;0.88;;;;;;;;;;5068544;28;20618;-59
2023/07/18 13:03:22;;;;;;;2.05;1.00;;;;;;;;;;5069062;28;20260;-59
2023/07/18 13:05:49;;;;;;;0.77;0.77;;;;;;;;;;5067128;28;20203;-59
2023/07/18 13:08:16;;;;;;;0.80;0.80;;;;;;;;;;5065930;28;20214;-59
2023/07/18 13:10:43;;;;;;;0.70;0.70;;;;;;;;;;5049618;28;20336;-59
2023/07/18 13:13:10;;;;;;;0.98;0.98;;;;;;;;;;5049017;28;20207;-59
2023/07/18 13:15:38;;;;;;;0.60;0.60;;;;;;;;;;5054543;28;20227;-59
2023/07/18 13:18:05;;;;;;;0.60;0.60;;;;;;;;;;5067587;28;20213;-59
2023/07/18 13:20:32;;;;;;;1.80;0.95;;;;;;;;;;5054175;28;20212;-59
2023/07/18 13:22:59;;;;;;;0.85;0.85;;;;;;;;;;5047182;28;20212;-59
2023/07/18 13:25:26;;;;;;;3.42;1.00;;;;;;;;;;5048321;28;20215;-59
2023/07/18 13:27:53;;;;;;;0.95;0.90;;;;;;;;;;5047811;28;20236;-59
2023/07/18 13:30:21;;;;;;;1.23;1.08;;;;;;;;;;5048161;28;20536;-59
2023/07/18 13:32:49;;;;;;;1.00;0.98;;;;;;;;;;5048914;28;20231;-58
2023/07/18 13:35:16;;;;;;;1.13;1.00;;;;;;;;;;5048421;28;20692;-59
2023/07/18 13:37:44;;;;;;;1.48;0.95;;;;;;;;;;5061356;28;20243;-59
2023/07/18 13:40:11;;;;;;;1.35;1.05;;;;;;;;;;5067667;28;20206;-59
2023/07/18 13:42:38;;;;;;;0.82;0.82;;;;;;;;;;5068739;28;20231;-59
2023/07/18 13:45:07;;;;;;;1.20;1.10;;;;;;;;;;5068555;28;20214;-58
2023/07/18 13:47:35;;;;;;;1.02;1.02;;;;;;;;;;5066459;28;20638;-59
2023/07/18 13:50:03;;;;;;;1.13;1.00;;;;;;;;;;5067991;28;20689;-61
2023/07/18 13:52:30;;;;;;;1.13;1.13;;;;;;;;;;5063263;28;20246;-60
2023/07/18 13:54:57;;;;;;;1.48;1.10;;;;;;;;;;5053057;28;20227;-60
2023/07/18 13:57:24;;;;;;;1.67;1.02;;;;;;;;;;5054425;28;20207;-59
2023/07/18 13:59:51;;;;;;;0.95;0.95;;;;;;;;;;5055296;28;20252;-60
2023/07/18 14:02:18;;;;;;;0.80;0.75;;;;;;;;;;5048400;28;20204;-60
2023/07/18 14:04:45;;;;;;;2.05;1.00;;;;;;;;;;5059094;28;20211;-60
2023/07/18 14:07:14;;;;;;;0.77;0.70;;;;;;;;;;5048478;28;20466;-60
2023/07/18 14:09:41;;;;;;;0.90;0.90;;;;;;;;;;5063556;28;20326;-62
2023/07/18 14:12:09;;;;;;;0.63;0.63;;;;;;;;;;5067398;28;20199;-62
2023/07/18 14:14:36;;;;;;;0.88;0.88;;;;;;;;;;5052389;28;20286;-61
2023/07/18 14:20:12;;;;;;;2.08;0.90;;;;;;;;;;5036066;28;20260;-59
2023/07/18 14:22:40;;;;;;;0.90;0.90;;;;;;;;;;5056182;28;20208;-59
2023/07/18 14:25:08;;;;;;;0.73;0.73;;;;;;;;;;5063360;28;20534;-59
2023/07/18 14:27:35;;;;;;;1.02;1.02;;;;;;;;;;5055179;28;20517;-59
2023/07/18 14:30:02;;;;;;;0.80;0.80;;;;;;;;;;5050658;28;20216;-60
2023/07/18 14:32:29;;;;;;;0.98;0.98;;;;;;;;;;5065860;28;20199;-59
2023/07/18 14:34:56;;;;;;;0.80;0.70;;;;;;;;;;5066935;28;20268;-60
2023/07/18 14:37:23;;;;;;;0.90;0.90;;;;;;;;;;5048753;28;20209;-60
2023/07/18 14:40:02;;;;;;;2.30;0.90;;;;;;;;;;5047579;28;20211;-60
2023/07/18 14:42:29;;;;;;;2.33;1.23;;;;;;;;;;5065203;28;20363;-60
2023/07/18 14:44:56;;;;;;;0.98;0.95;;;;;;;;;;5067065;28;20211;-60
2023/07/18 14:47:23;;;;;;;0.95;0.95;;;;;;;;;;5067370;28;20222;-60
2023/07/18 14:49:50;;;;;;;0.82;0.82;;;;;;;;;;5067865;28;20203;-60
2023/07/18 14:52:18;;;;;;;0.60;0.60;;;;;;;;;;5058553;28;20936;-61